CFG18A YBCS-YBHM
Flight info
| Callsign | CFG18A |
|---|---|
| Flight time | 0h 48m |
| Altitude | 35000 |
| Route | CS Y177 AKROM Z17 OVRON |
| Aircraft | A320/M-SDE3FGHIRWY/LB1 |
Departure
| Time | 2026-04-26 15:48 |
|---|---|
| Airport | Cairns International Airport (YBCS) |
Arrival
| Time | 2026-04-26 16:37 |
|---|---|
| Airport | Hamilton Island Airport (YBHM) |
| Time | Latitude | Longitude | Altitude | Speed | Heading |
|---|---|---|---|---|---|
| 2026-04-26 15:30 | -16.87779 | 145.75296 | 14 ft | 0 kts | 66° |
| 2026-04-26 15:40 | -16.87789 | 145.75275 | 15 ft | 4 kts | 60° |
| 2026-04-26 15:40 | -16.87804 | 145.75252 | 17 ft | 4 kts | 46° |
| 2026-04-26 15:40 | -16.87819 | 145.75238 | 16 ft | 1 kts | 35° |
| 2026-04-26 15:40 | -16.87822 | 145.75235 | 15 ft | 0 kts | 35° |
| 2026-04-26 15:43 | -16.87821 | 145.75236 | 16 ft | 1 kts | 34° |
| 2026-04-26 15:43 | -16.87665 | 145.75145 | 16 ft | 18 kts | 335° |
| 2026-04-26 15:44 | -16.87552 | 145.75097 | 16 ft | 17 kts | 338° |
| 2026-04-26 15:44 | -16.87331 | 145.74971 | 17 ft | 23 kts | 306° |
| 2026-04-26 15:44 | -16.87231 | 145.74846 | 16 ft | 23 kts | 334° |
| 2026-04-26 15:45 | -16.87046 | 145.74717 | 16 ft | 13 kts | 268° |
| 2026-04-26 15:45 | -16.87053 | 145.74694 | 13 ft | 0 kts | 245° |
| 2026-04-26 15:46 | -16.86997 | 145.74544 | 13 ft | 20 kts | 336° |
| 2026-04-26 15:46 | -16.86854 | 145.74481 | 14 ft | 25 kts | 336° |
| 2026-04-26 15:46 | -16.86695 | 145.74409 | 17 ft | 17 kts | 338° |
| 2026-04-26 15:46 | -16.86627 | 145.74417 | 18 ft | 13 kts | 17° |
| 2026-04-26 15:47 | -16.86597 | 145.74363 | 20 ft | 8 kts | 204° |
| 2026-04-26 15:47 | -16.86632 | 145.74378 | 19 ft | 8 kts | 157° |
| 2026-04-26 15:47 | -16.86918 | 145.74507 | 14 ft | 85 kts | 156° |
| 2026-04-26 15:48 | -16.87667 | 145.74846 | 21 ft | 146 kts | 156° |
| 2026-04-26 15:48 | -16.88677 | 145.75306 | 516 ft | 160 kts | 152° |
| 2026-04-26 15:48 | -16.89527 | 145.76047 | 1291 ft | 167 kts | 127° |
| 2026-04-26 15:48 | -16.89913 | 145.77278 | 1738 ft | 193 kts | 92° |
| 2026-04-26 15:49 | -16.89488 | 145.78618 | 2454 ft | 206 kts | 56° |
| 2026-04-26 15:49 | -16.88408 | 145.79633 | 3230 ft | 210 kts | 43° |
| 2026-04-26 15:49 | -16.87224 | 145.80538 | 4029 ft | 211 kts | 41° |
| 2026-04-26 15:49 | -16.85996 | 145.81445 | 4635 ft | 222 kts | 41° |
| 2026-04-26 15:50 | -16.84851 | 145.82552 | 5241 ft | 226 kts | 59° |
| 2026-04-26 15:50 | -16.84276 | 145.84068 | 5914 ft | 232 kts | 89° |
| 2026-04-26 15:50 | -16.84695 | 145.85719 | 6352 ft | 253 kts | 125° |
| 2026-04-26 15:50 | -16.86088 | 145.86895 | 7025 ft | 266 kts | 152° |
| 2026-04-26 15:51 | -16.87826 | 145.87635 | 7899 ft | 272 kts | 158° |
| 2026-04-26 15:51 | -16.89588 | 145.88323 | 8781 ft | 278 kts | 158° |
| 2026-04-26 15:51 | -16.91414 | 145.89036 | 9678 ft | 283 kts | 158° |
| 2026-04-26 15:51 | -16.93291 | 145.89775 | 10346 ft | 297 kts | 157° |
| 2026-04-26 15:52 | -16.95231 | 145.90751 | 10689 ft | 320 kts | 151° |
| 2026-04-26 15:52 | -16.97186 | 145.91950 | 11301 ft | 330 kts | 149° |
| 2026-04-26 15:52 | -16.99126 | 145.93229 | 11998 ft | 337 kts | 148° |
| 2026-04-26 15:52 | -17.00469 | 145.94130 | 12472 ft | 341 kts | 148° |
| 2026-04-26 15:53 | -17.03150 | 145.95914 | 13383 ft | 349 kts | 149° |
| 2026-04-26 15:53 | -17.05233 | 145.97271 | 14031 ft | 354 kts | 150° |
| 2026-04-26 15:53 | -17.07347 | 145.98623 | 14672 ft | 357 kts | 151° |
| 2026-04-26 15:53 | -17.09487 | 145.99977 | 15328 ft | 360 kts | 152° |
| 2026-04-26 15:54 | -17.11618 | 146.01319 | 15971 ft | 364 kts | 152° |
| 2026-04-26 15:54 | -17.13802 | 146.02690 | 16635 ft | 367 kts | 153° |
| 2026-04-26 15:54 | -17.16000 | 146.04071 | 17293 ft | 370 kts | 153° |
| 2026-04-26 15:54 | -17.18220 | 146.05468 | 17953 ft | 373 kts | 153° |
| 2026-04-26 15:55 | -17.20456 | 146.06878 | 18564 ft | 376 kts | 153° |
| 2026-04-26 15:55 | -17.22718 | 146.08307 | 19107 ft | 380 kts | 154° |
| 2026-04-26 15:55 | -17.24959 | 146.09724 | 19635 ft | 384 kts | 154° |
| 2026-04-26 15:55 | -17.27264 | 146.11180 | 20164 ft | 388 kts | 154° |
| 2026-04-26 15:56 | -17.29596 | 146.12649 | 20706 ft | 393 kts | 154° |
| 2026-04-26 15:56 | -17.31950 | 146.14134 | 21235 ft | 397 kts | 154° |
| 2026-04-26 15:56 | -17.34330 | 146.15637 | 21763 ft | 401 kts | 154° |
| 2026-04-26 15:56 | -17.36731 | 146.17158 | 22289 ft | 406 kts | 154° |
| 2026-04-26 15:57 | -17.39166 | 146.18701 | 22817 ft | 410 kts | 155° |
| 2026-04-26 15:57 | -17.41588 | 146.20236 | 23328 ft | 414 kts | 155° |
| 2026-04-26 15:57 | -17.44067 | 146.21810 | 23799 ft | 419 kts | 155° |
| 2026-04-26 15:57 | -17.45728 | 146.22864 | 24081 ft | 422 kts | 155° |
| 2026-04-26 15:58 | -17.49116 | 146.25014 | 24639 ft | 427 kts | 155° |
| 2026-04-26 15:58 | -17.51676 | 146.26639 | 25055 ft | 431 kts | 155° |
| 2026-04-26 15:58 | -17.54227 | 146.28258 | 25453 ft | 435 kts | 155° |
| 2026-04-26 15:58 | -17.56828 | 146.29912 | 25852 ft | 439 kts | 155° |
| 2026-04-26 15:59 | -17.59462 | 146.31585 | 26247 ft | 442 kts | 156° |
| 2026-04-26 15:59 | -17.62112 | 146.33268 | 26635 ft | 446 kts | 156° |
| 2026-04-26 15:59 | -17.64781 | 146.34962 | 27017 ft | 450 kts | 156° |
| 2026-04-26 15:59 | -17.67434 | 146.36645 | 27386 ft | 453 kts | 156° |
| 2026-04-26 16:00 | -17.70158 | 146.38373 | 27755 ft | 457 kts | 156° |
| 2026-04-26 16:00 | -17.72890 | 146.40105 | 28124 ft | 460 kts | 156° |
| 2026-04-26 16:00 | -17.75648 | 146.41853 | 28495 ft | 463 kts | 156° |
| 2026-04-26 16:00 | -17.78417 | 146.43610 | 28849 ft | 467 kts | 156° |
| 2026-04-26 16:01 | -17.81199 | 146.45380 | 29207 ft | 470 kts | 156° |
| 2026-04-26 16:01 | -17.84007 | 146.47174 | 29555 ft | 473 kts | 156° |
| 2026-04-26 16:01 | -17.86828 | 146.48980 | 29891 ft | 476 kts | 157° |
| 2026-04-26 16:01 | -17.89633 | 146.50773 | 30191 ft | 480 kts | 157° |
| 2026-04-26 16:02 | -17.92498 | 146.52601 | 30459 ft | 483 kts | 157° |
| 2026-04-26 16:02 | -17.95385 | 146.54444 | 30725 ft | 486 kts | 157° |
| 2026-04-26 16:02 | -17.98285 | 146.56291 | 30990 ft | 489 kts | 157° |
| 2026-04-26 16:02 | -18.00219 | 146.57523 | 31154 ft | 491 kts | 157° |
| 2026-04-26 16:03 | -18.04153 | 146.60032 | 31478 ft | 495 kts | 157° |
| 2026-04-26 16:03 | -18.07073 | 146.61896 | 31733 ft | 497 kts | 157° |
| 2026-04-26 16:03 | -18.10041 | 146.63794 | 32070 ft | 498 kts | 157° |
| 2026-04-26 16:03 | -18.13004 | 146.65690 | 32416 ft | 499 kts | 157° |
| 2026-04-26 16:04 | -18.15984 | 146.67594 | 32753 ft | 499 kts | 157° |
| 2026-04-26 16:04 | -18.18914 | 146.69467 | 33073 ft | 501 kts | 157° |
| 2026-04-26 16:04 | -18.21901 | 146.71380 | 33411 ft | 502 kts | 157° |
| 2026-04-26 16:04 | -18.24897 | 146.73301 | 33745 ft | 503 kts | 157° |
| 2026-04-26 16:05 | -18.27887 | 146.75218 | 34087 ft | 503 kts | 157° |
| 2026-04-26 16:05 | -18.30873 | 146.77135 | 34406 ft | 503 kts | 157° |
| 2026-04-26 16:05 | -18.33853 | 146.79083 | 34741 ft | 505 kts | 154° |
| 2026-04-26 16:05 | -18.36634 | 146.81408 | 34941 ft | 517 kts | 143° |
| 2026-04-26 16:06 | -18.39153 | 146.84108 | 34993 ft | 512 kts | 141° |
| 2026-04-26 16:06 | -18.44016 | 146.89460 | 34995 ft | 504 kts | 141° |
| 2026-04-26 16:07 | -18.48873 | 146.94788 | 34993 ft | 502 kts | 141° |
| 2026-04-26 16:07 | -18.53705 | 147.00069 | 34991 ft | 502 kts | 141° |
| 2026-04-26 16:08 | -18.58559 | 147.05367 | 34990 ft | 502 kts | 141° |
| 2026-04-26 16:08 | -18.63380 | 147.10649 | 34991 ft | 501 kts | 141° |
| 2026-04-26 16:09 | -18.68222 | 147.15966 | 34996 ft | 501 kts | 141° |
| 2026-04-26 16:09 | -18.73037 | 147.21259 | 34999 ft | 500 kts | 141° |
| 2026-04-26 16:10 | -18.77875 | 147.26579 | 35002 ft | 500 kts | 141° |
| 2026-04-26 16:10 | -18.82663 | 147.31843 | 35009 ft | 499 kts | 141° |
| 2026-04-26 16:11 | -18.87485 | 147.37156 | 35011 ft | 499 kts | 141° |
| 2026-04-26 16:11 | -18.92272 | 147.42434 | 34935 ft | 500 kts | 141° |
| 2026-04-26 16:11 | -18.94690 | 147.45102 | 34705 ft | 498 kts | 141° |
| 2026-04-26 16:12 | -18.97052 | 147.47715 | 34482 ft | 496 kts | 141° |
| 2026-04-26 16:12 | -18.99433 | 147.50350 | 34256 ft | 493 kts | 141° |
| 2026-04-26 16:12 | -19.04169 | 147.55584 | 33082 ft | 489 kts | 141° |
| 2026-04-26 16:13 | -19.06520 | 147.58182 | 32493 ft | 486 kts | 140° |
| 2026-04-26 16:13 | -19.08829 | 147.60734 | 31908 ft | 483 kts | 140° |
| 2026-04-26 16:13 | -19.11144 | 147.63297 | 31342 ft | 476 kts | 140° |
| 2026-04-26 16:13 | -19.13410 | 147.65814 | 30678 ft | 465 kts | 139° |
| 2026-04-26 16:14 | -19.15622 | 147.68271 | 30036 ft | 455 kts | 139° |
| 2026-04-26 16:14 | -19.17753 | 147.70633 | 29444 ft | 442 kts | 139° |
| 2026-04-26 16:14 | -19.21830 | 147.75159 | 28709 ft | 412 kts | 139° |
| 2026-04-26 16:15 | -19.23778 | 147.77325 | 28262 ft | 400 kts | 139° |
| 2026-04-26 16:15 | -19.25685 | 147.79439 | 27827 ft | 394 kts | 139° |
| 2026-04-26 16:15 | -19.27574 | 147.81526 | 27375 ft | 392 kts | 139° |
| 2026-04-26 16:16 | -19.31311 | 147.85652 | 26467 ft | 388 kts | 139° |
| 2026-04-26 16:16 | -19.33177 | 147.87721 | 25999 ft | 386 kts | 139° |
| 2026-04-26 16:16 | -19.35035 | 147.89785 | 25522 ft | 385 kts | 139° |
| 2026-04-26 16:16 | -19.36879 | 147.91840 | 25034 ft | 385 kts | 139° |
| 2026-04-26 16:17 | -19.38707 | 147.93872 | 24548 ft | 384 kts | 139° |
| 2026-04-26 16:17 | -19.40552 | 147.95921 | 24043 ft | 384 kts | 139° |
| 2026-04-26 16:17 | -19.42398 | 147.97977 | 23534 ft | 384 kts | 138° |
| 2026-04-26 16:17 | -19.44242 | 148.00034 | 22970 ft | 384 kts | 138° |
| 2026-04-26 16:18 | -19.46074 | 148.02080 | 22478 ft | 381 kts | 138° |
| 2026-04-26 16:18 | -19.49715 | 148.06141 | 21503 ft | 377 kts | 138° |
| 2026-04-26 16:19 | -19.53297 | 148.10130 | 20554 ft | 374 kts | 138° |
| 2026-04-26 16:19 | -19.55093 | 148.12132 | 20084 ft | 373 kts | 138° |
| 2026-04-26 16:19 | -19.58064 | 148.15447 | 19310 ft | 372 kts | 138° |
| 2026-04-26 16:20 | -19.60445 | 148.18111 | 18687 ft | 371 kts | 138° |
| 2026-04-26 16:20 | -19.63957 | 148.22035 | 17721 ft | 361 kts | 137° |
| 2026-04-26 16:20 | -19.65661 | 148.23948 | 17288 ft | 352 kts | 137° |
| 2026-04-26 16:21 | -19.67307 | 148.25793 | 16863 ft | 344 kts | 137° |
| 2026-04-26 16:21 | -19.68934 | 148.27614 | 16452 ft | 336 kts | 137° |
| 2026-04-26 16:21 | -19.70524 | 148.29393 | 16052 ft | 329 kts | 137° |
| 2026-04-26 16:21 | -19.72084 | 148.31140 | 15664 ft | 322 kts | 137° |
| 2026-04-26 16:22 | -19.73613 | 148.32852 | 15282 ft | 316 kts | 137° |
| 2026-04-26 16:22 | -19.75111 | 148.34530 | 14908 ft | 312 kts | 137° |
| 2026-04-26 16:22 | -19.76610 | 148.36206 | 14533 ft | 313 kts | 137° |
| 2026-04-26 16:22 | -19.78113 | 148.37885 | 14155 ft | 313 kts | 137° |
| 2026-04-26 16:23 | -19.79599 | 148.39549 | 13780 ft | 314 kts | 136° |
| 2026-04-26 16:23 | -19.81106 | 148.41239 | 13362 ft | 314 kts | 136° |
| 2026-04-26 16:23 | -19.82607 | 148.42924 | 12979 ft | 312 kts | 136° |
| 2026-04-26 16:23 | -19.84092 | 148.44588 | 12597 ft | 310 kts | 136° |
| 2026-04-26 16:24 | -19.85075 | 148.45689 | 12336 ft | 309 kts | 135° |
| 2026-04-26 16:24 | -19.87029 | 148.47879 | 11824 ft | 306 kts | 135° |
| 2026-04-26 16:24 | -19.88493 | 148.49524 | 11427 ft | 305 kts | 135° |
| 2026-04-26 16:24 | -19.89451 | 148.50602 | 11160 ft | 297 kts | 135° |
| 2026-04-26 16:25 | -19.90842 | 148.52171 | 10784 ft | 284 kts | 134° |
| 2026-04-26 16:25 | -19.92586 | 148.54141 | 10309 ft | 268 kts | 134° |
| 2026-04-26 16:25 | -19.93441 | 148.55104 | 10072 ft | 261 kts | 134° |
| 2026-04-26 16:25 | -19.94669 | 148.56483 | 9710 ft | 259 kts | 134° |
| 2026-04-26 16:26 | -19.95904 | 148.57869 | 9337 ft | 256 kts | 134° |
| 2026-04-26 16:26 | -19.97124 | 148.59238 | 8975 ft | 253 kts | 133° |
| 2026-04-26 16:26 | -19.98344 | 148.60607 | 8526 ft | 250 kts | 133° |
| 2026-04-26 16:26 | -19.99506 | 148.61911 | 8212 ft | 243 kts | 133° |
| 2026-04-26 16:27 | -20.00659 | 148.63210 | 7831 ft | 238 kts | 133° |
| 2026-04-26 16:27 | -20.01784 | 148.64479 | 7491 ft | 233 kts | 133° |
| 2026-04-26 16:27 | -20.02897 | 148.65734 | 7154 ft | 232 kts | 132° |
| 2026-04-26 16:27 | -20.04002 | 148.66977 | 6820 ft | 230 kts | 132° |
| 2026-04-26 16:28 | -20.05085 | 148.68194 | 6505 ft | 227 kts | 132° |
| 2026-04-26 16:28 | -20.06164 | 148.69409 | 6209 ft | 224 kts | 132° |
| 2026-04-26 16:28 | -20.07229 | 148.70612 | 5910 ft | 221 kts | 132° |
| 2026-04-26 16:28 | -20.08278 | 148.71797 | 5612 ft | 218 kts | 132° |
| 2026-04-26 16:29 | -20.09296 | 148.72946 | 5369 ft | 213 kts | 132° |
| 2026-04-26 16:29 | -20.10302 | 148.74079 | 5147 ft | 208 kts | 132° |
| 2026-04-26 16:29 | -20.11282 | 148.75184 | 4928 ft | 203 kts | 132° |
| 2026-04-26 16:29 | -20.12244 | 148.76269 | 4706 ft | 199 kts | 133° |
| 2026-04-26 16:30 | -20.13303 | 148.77197 | 4483 ft | 196 kts | 142° |
| 2026-04-26 16:30 | -20.14375 | 148.78048 | 4253 ft | 192 kts | 142° |
| 2026-04-26 16:30 | -20.15439 | 148.78897 | 4032 ft | 189 kts | 142° |
| 2026-04-26 16:30 | -20.16482 | 148.79732 | 3810 ft | 186 kts | 142° |
| 2026-04-26 16:31 | -20.17516 | 148.80560 | 3588 ft | 184 kts | 142° |
| 2026-04-26 16:31 | -20.18538 | 148.81377 | 3365 ft | 183 kts | 142° |
| 2026-04-26 16:31 | -20.19555 | 148.82189 | 3148 ft | 182 kts | 142° |
| 2026-04-26 16:31 | -20.20570 | 148.83001 | 2949 ft | 182 kts | 142° |
| 2026-04-26 16:32 | -20.21571 | 148.83803 | 2783 ft | 181 kts | 142° |
| 2026-04-26 16:32 | -20.22235 | 148.84334 | 2658 ft | 177 kts | 142° |
| 2026-04-26 16:32 | -20.23535 | 148.85372 | 2420 ft | 170 kts | 143° |
| 2026-04-26 16:32 | -20.24455 | 148.86107 | 2310 ft | 160 kts | 143° |
| 2026-04-26 16:33 | -20.25306 | 148.86788 | 2201 ft | 148 kts | 143° |
| 2026-04-26 16:33 | -20.26083 | 148.87411 | 2054 ft | 130 kts | 143° |
| 2026-04-26 16:33 | -20.26784 | 148.87971 | 1907 ft | 125 kts | 143° |
| 2026-04-26 16:33 | -20.27462 | 148.88513 | 1739 ft | 119 kts | 144° |
| 2026-04-26 16:34 | -20.28110 | 148.89052 | 1562 ft | 116 kts | 143° |
| 2026-04-26 16:34 | -20.28745 | 148.89587 | 1400 ft | 119 kts | 144° |
| 2026-04-26 16:34 | -20.29417 | 148.90114 | 1285 ft | 121 kts | 145° |
| 2026-04-26 16:34 | -20.30109 | 148.90639 | 1144 ft | 120 kts | 144° |
| 2026-04-26 16:35 | -20.30778 | 148.91175 | 1028 ft | 120 kts | 143° |
| 2026-04-26 16:35 | -20.31447 | 148.91716 | 898 ft | 120 kts | 144° |
| 2026-04-26 16:35 | -20.32118 | 148.92263 | 745 ft | 123 kts | 144° |
| 2026-04-26 16:35 | -20.32792 | 148.92809 | 619 ft | 124 kts | 143° |
| 2026-04-26 16:36 | -20.33488 | 148.93363 | 457 ft | 125 kts | 143° |
| 2026-04-26 16:36 | -20.34200 | 148.93918 | 276 ft | 126 kts | 142° |
| 2026-04-26 16:36 | -20.34886 | 148.94476 | 95 ft | 121 kts | 142° |
| 2026-04-26 16:36 | -20.35534 | 148.94994 | 28 ft | 104 kts | 143° |
| 2026-04-26 16:37 | -20.35930 | 148.95309 | 23 ft | 54 kts | 143° |
| 2026-04-26 16:37 | -20.36194 | 148.95518 | 23 ft | 42 kts | 143° |
| 2026-04-26 16:37 | -20.36339 | 148.95629 | 25 ft | 15 kts | 160° |
| 2026-04-26 16:37 | -20.36406 | 148.95668 | 26 ft | 8 kts | 64° |
| 2026-04-26 16:38 | -20.36354 | 148.95646 | 29 ft | 17 kts | 323° |
| 2026-04-26 16:38 | -20.36196 | 148.95520 | 22 ft | 36 kts | 323° |
| 2026-04-26 16:38 | -20.35988 | 148.95353 | 22 ft | 38 kts | 323° |
| 2026-04-26 16:38 | -20.35774 | 148.95183 | 26 ft | 39 kts | 323° |
| 2026-04-26 16:39 | -20.35572 | 148.95022 | 28 ft | 27 kts | 324° |
| 2026-04-26 16:39 | -20.35468 | 148.94941 | 28 ft | 14 kts | 329° |
| 2026-04-26 16:39 | -20.35388 | 148.94968 | 23 ft | 14 kts | 53° |
| 2026-04-26 16:39 | -20.35311 | 148.94985 | 21 ft | 12 kts | 326° |
| 2026-04-26 16:40 | -20.35253 | 148.94966 | 22 ft | 3 kts | 8° |
| 2026-04-26 16:40 | -20.35240 | 148.94969 | 22 ft | 2 kts | 12° |
| 2026-04-26 16:40 | -20.35231 | 148.94971 | 22 ft | 1 kts | 12° |
| 2026-04-26 16:40 | -20.35230 | 148.94971 | 22 ft | 0 kts | 12° |